sensor_id;sensor_type;location;lat;lon;timestamp;P1;durP1;ratioP1;P2;durP2;ratioP2
13051;SDS011;6592;47.484;9.726;2022-12-08T00:01:57;11.75;;;5.50;;
13051;SDS011;6592;47.484;9.726;2022-12-08T00:04:26;14.25;;;5.47;;
13051;SDS011;6592;47.484;9.726;2022-12-08T00:06:54;14.40;;;4.72;;
13051;SDS011;6592;47.484;9.726;2022-12-08T00:09:45;9.65;;;4.13;;
13051;SDS011;6592;47.484;9.726;2022-12-08T00:12:14;12.18;;;4.93;;
13051;SDS011;6592;47.484;9.726;2022-12-08T00:14:44;14.82;;;6.10;;
13051;SDS011;6592;47.484;9.726;2022-12-08T00:17:15;12.65;;;5.32;;
13051;SDS011;6592;47.484;9.726;2022-12-08T00:19:44;13.27;;;4.85;;
13051;SDS011;6592;47.484;9.726;2022-12-08T00:22:13;11.80;;;4.75;;
13051;SDS011;6592;47.484;9.726;2022-12-08T00:24:41;12.25;;;4.97;;
13051;SDS011;6592;47.484;9.726;2022-12-08T00:27:12;9.77;;;3.33;;
13051;SDS011;6592;47.484;9.726;2022-12-08T00:29:41;9.32;;;3.70;;
13051;SDS011;6592;47.484;9.726;2022-12-08T00:32:11;11.27;;;3.97;;
13051;SDS011;6592;47.484;9.726;2022-12-08T00:34:39;9.75;;;4.03;;
13051;SDS011;6592;47.484;9.726;2022-12-08T00:37:08;10.23;;;3.13;;
13051;SDS011;6592;47.484;9.726;2022-12-08T00:39:36;8.10;;;2.97;;
13051;SDS011;6592;47.484;9.726;2022-12-08T00:42:04;6.97;;;3.05;;
13051;SDS011;6592;47.484;9.726;2022-12-08T00:44:38;6.45;;;2.58;;
13051;SDS011;6592;47.484;9.726;2022-12-08T00:47:08;5.47;;;2.38;;
13051;SDS011;6592;47.484;9.726;2022-12-08T00:49:37;7.97;;;3.05;;
13051;SDS011;6592;47.484;9.726;2022-12-08T00:52:05;7.68;;;2.45;;
13051;SDS011;6592;47.484;9.726;2022-12-08T00:54:34;6.57;;;2.58;;
13051;SDS011;6592;47.484;9.726;2022-12-08T00:57:02;7.40;;;2.58;;
13051;SDS011;6592;47.484;9.726;2022-12-08T00:59:31;6.70;;;2.50;;
13051;SDS011;6592;47.484;9.726;2022-12-08T01:01:59;8.85;;;3.42;;
13051;SDS011;6592;47.484;9.726;2022-12-08T01:04:29;6.38;;;2.67;;
13051;SDS011;6592;47.484;9.726;2022-12-08T01:06:57;5.88;;;2.33;;
13051;SDS011;6592;47.484;9.726;2022-12-08T01:09:25;8.25;;;2.20;;
13051;SDS011;6592;47.484;9.726;2022-12-08T01:11:54;5.85;;;2.30;;
13051;SDS011;6592;47.484;9.726;2022-12-08T01:14:22;4.95;;;1.85;;
13051;SDS011;6592;47.484;9.726;2022-12-08T01:16:50;4.43;;;1.90;;
13051;SDS011;6592;47.484;9.726;2022-12-08T01:19:19;6.40;;;2.27;;
13051;SDS011;6592;47.484;9.726;2022-12-08T01:21:48;6.50;;;2.20;;
13051;SDS011;6592;47.484;9.726;2022-12-08T01:24:17;6.07;;;2.20;;
13051;SDS011;6592;47.484;9.726;2022-12-08T01:26:48;5.40;;;2.40;;
13051;SDS011;6592;47.484;9.726;2022-12-08T01:29:16;6.30;;;2.13;;
13051;SDS011;6592;47.484;9.726;2022-12-08T01:31:44;5.07;;;1.90;;
13051;SDS011;6592;47.484;9.726;2022-12-08T01:34:13;5.87;;;2.57;;
13051;SDS011;6592;47.484;9.726;2022-12-08T01:36:41;4.03;;;1.80;;
13051;SDS011;6592;47.484;9.726;2022-12-08T01:39:12;7.50;;;2.17;;
13051;SDS011;6592;47.484;9.726;2022-12-08T01:41:42;6.00;;;2.53;;
13051;SDS011;6592;47.484;9.726;2022-12-08T01:47:17;6.80;;;2.78;;
13051;SDS011;6592;47.484;9.726;2022-12-08T01:49:45;7.10;;;2.30;;
13051;SDS011;6592;47.484;9.726;2022-12-08T01:52:15;9.75;;;2.85;;
13051;SDS011;6592;47.484;9.726;2022-12-08T01:54:50;8.00;;;2.77;;
13051;SDS011;6592;47.484;9.726;2022-12-08T01:57:22;6.37;;;2.60;;
13051;SDS011;6592;47.484;9.726;2022-12-08T01:59:55;8.38;;;2.78;;
13051;SDS011;6592;47.484;9.726;2022-12-08T02:02:28;9.23;;;2.70;;
13051;SDS011;6592;47.484;9.726;2022-12-08T02:05:01;6.45;;;2.42;;
13051;SDS011;6592;47.484;9.726;2022-12-08T02:07:30;6.63;;;2.63;;
13051;SDS011;6592;47.484;9.726;2022-12-08T02:10:00;5.80;;;2.00;;
13051;SDS011;6592;47.484;9.726;2022-12-08T02:12:30;5.38;;;2.20;;
13051;SDS011;6592;47.484;9.726;2022-12-08T02:14:58;7.63;;;2.67;;
13051;SDS011;6592;47.484;9.726;2022-12-08T02:17:34;7.32;;;2.63;;
13051;SDS011;6592;47.484;9.726;2022-12-08T02:20:22;4.93;;;2.38;;
13051;SDS011;6592;47.484;9.726;2022-12-08T02:23:02;7.50;;;2.70;;
13051;SDS011;6592;47.484;9.726;2022-12-08T02:25:40;6.57;;;2.30;;
13051;SDS011;6592;47.484;9.726;2022-12-08T02:28:41;6.03;;;2.05;;
13051;SDS011;6592;47.484;9.726;2022-12-08T02:31:32;4.32;;;1.50;;
13051;SDS011;6592;47.484;9.726;2022-12-08T02:34:16;5.35;;;1.95;;
13051;SDS011;6592;47.484;9.726;2022-12-08T02:36:52;6.67;;;2.27;;
13051;SDS011;6592;47.484;9.726;2022-12-08T02:39:27;5.53;;;2.20;;
13051;SDS011;6592;47.484;9.726;2022-12-08T02:42:04;5.03;;;1.57;;
13051;SDS011;6592;47.484;9.726;2022-12-08T02:44:40;7.10;;;1.93;;
13051;SDS011;6592;47.484;9.726;2022-12-08T02:47:14;4.97;;;1.60;;
13051;SDS011;6592;47.484;9.726;2022-12-08T02:49:46;8.43;;;2.50;;
13051;SDS011;6592;47.484;9.726;2022-12-08T02:55:17;5.23;;;1.70;;
13051;SDS011;6592;47.484;9.726;2022-12-08T02:57:54;7.20;;;1.73;;
13051;SDS011;6592;47.484;9.726;2022-12-08T03:00:35;5.17;;;2.13;;
13051;SDS011;6592;47.484;9.726;2022-12-08T03:03:15;6.50;;;2.60;;
13051;SDS011;6592;47.484;9.726;2022-12-08T03:05:56;6.53;;;2.20;;
13051;SDS011;6592;47.484;9.726;2022-12-08T03:08:34;7.87;;;2.10;;
13051;SDS011;6592;47.484;9.726;2022-12-08T03:11:10;6.57;;;2.23;;
13051;SDS011;6592;47.484;9.726;2022-12-08T03:13:46;5.20;;;1.80;;
13051;SDS011;6592;47.484;9.726;2022-12-08T03:16:19;5.73;;;2.33;;
13051;SDS011;6592;47.484;9.726;2022-12-08T03:18:51;5.60;;;2.27;;
13051;SDS011;6592;47.484;9.726;2022-12-08T03:21:24;4.27;;;1.60;;
13051;SDS011;6592;47.484;9.726;2022-12-08T03:23:53;5.00;;;1.95;;
13051;SDS011;6592;47.484;9.726;2022-12-08T03:26:24;6.47;;;2.40;;
13051;SDS011;6592;47.484;9.726;2022-12-08T03:28:57;4.73;;;2.00;;
13051;SDS011;6592;47.484;9.726;2022-12-08T03:31:26;4.53;;;1.87;;
13051;SDS011;6592;47.484;9.726;2022-12-08T03:33:59;7.10;;;2.37;;
13051;SDS011;6592;47.484;9.726;2022-12-08T03:36:30;7.07;;;2.73;;
13051;SDS011;6592;47.484;9.726;2022-12-08T03:38:59;7.73;;;2.77;;
13051;SDS011;6592;47.484;9.726;2022-12-08T03:41:27;8.10;;;3.00;;
13051;SDS011;6592;47.484;9.726;2022-12-08T03:43:56;11.17;;;2.70;;
13051;SDS011;6592;47.484;9.726;2022-12-08T03:46:26;5.70;;;2.83;;
13051;SDS011;6592;47.484;9.726;2022-12-08T03:48:54;6.20;;;2.33;;
13051;SDS011;6592;47.484;9.726;2022-12-08T03:51:23;5.00;;;1.83;;
13051;SDS011;6592;47.484;9.726;2022-12-08T03:53:54;9.03;;;2.87;;
13051;SDS011;6592;47.484;9.726;2022-12-08T03:56:22;7.23;;;1.97;;
13051;SDS011;6592;47.484;9.726;2022-12-08T03:58:52;5.40;;;2.03;;
13051;SDS011;6592;47.484;9.726;2022-12-08T04:01:21;4.90;;;1.70;;
13051;SDS011;6592;47.484;9.726;2022-12-08T04:03:50;2.23;;;0.93;;
13051;SDS011;6592;47.484;9.726;2022-12-08T04:06:18;4.27;;;1.63;;
13051;SDS011;6592;47.484;9.726;2022-12-08T04:08:47;4.90;;;1.60;;
13051;SDS011;6592;47.484;9.726;2022-12-08T04:11:18;4.93;;;1.93;;
13051;SDS011;6592;47.484;9.726;2022-12-08T04:13:47;3.07;;;1.50;;
13051;SDS011;6592;47.484;9.726;2022-12-08T04:16:16;4.00;;;1.23;;
13051;SDS011;6592;47.484;9.726;2022-12-08T04:18:46;5.45;;;1.33;;
13051;SDS011;6592;47.484;9.726;2022-12-08T04:21:15;4.83;;;2.00;;
13051;SDS011;6592;47.484;9.726;2022-12-08T04:23:43;6.70;;;2.10;;
13051;SDS011;6592;47.484;9.726;2022-12-08T04:26:13;7.83;;;2.00;;
13051;SDS011;6592;47.484;9.726;2022-12-08T04:28:50;5.53;;;1.50;;
13051;SDS011;6592;47.484;9.726;2022-12-08T04:31:18;5.03;;;1.57;;
13051;SDS011;6592;47.484;9.726;2022-12-08T04:33:47;3.43;;;1.33;;
13051;SDS011;6592;47.484;9.726;2022-12-08T04:36:15;4.47;;;1.33;;
13051;SDS011;6592;47.484;9.726;2022-12-08T04:38:43;7.60;;;1.70;;
13051;SDS011;6592;47.484;9.726;2022-12-08T04:41:12;3.97;;;1.53;;
13051;SDS011;6592;47.484;9.726;2022-12-08T04:43:40;2.87;;;1.30;;
13051;SDS011;6592;47.484;9.726;2022-12-08T04:46:11;5.13;;;1.40;;
13051;SDS011;6592;47.484;9.726;2022-12-08T04:48:39;4.80;;;1.20;;
13051;SDS011;6592;47.484;9.726;2022-12-08T04:51:11;2.93;;;1.10;;
13051;SDS011;6592;47.484;9.726;2022-12-08T04:53:42;3.20;;;1.30;;
13051;SDS011;6592;47.484;9.726;2022-12-08T04:56:12;4.37;;;1.50;;
13051;SDS011;6592;47.484;9.726;2022-12-08T04:58:41;3.50;;;1.10;;
13051;SDS011;6592;47.484;9.726;2022-12-08T05:01:11;3.53;;;1.30;;
13051;SDS011;6592;47.484;9.726;2022-12-08T05:03:40;4.27;;;1.50;;
13051;SDS011;6592;47.484;9.726;2022-12-08T05:06:09;5.17;;;1.73;;
13051;SDS011;6592;47.484;9.726;2022-12-08T05:08:39;4.70;;;1.70;;
13051;SDS011;6592;47.484;9.726;2022-12-08T05:11:08;5.30;;;1.73;;
13051;SDS011;6592;47.484;9.726;2022-12-08T05:13:38;4.50;;;1.60;;
13051;SDS011;6592;47.484;9.726;2022-12-08T05:16:07;4.90;;;1.70;;
13051;SDS011;6592;47.484;9.726;2022-12-08T05:18:38;4.83;;;1.40;;
13051;SDS011;6592;47.484;9.726;2022-12-08T05:21:07;4.03;;;1.43;;
13051;SDS011;6592;47.484;9.726;2022-12-08T05:23:35;4.63;;;1.37;;
13051;SDS011;6592;47.484;9.726;2022-12-08T05:26:04;4.10;;;1.50;;
13051;SDS011;6592;47.484;9.726;2022-12-08T05:28:32;4.77;;;1.73;;
13051;SDS011;6592;47.484;9.726;2022-12-08T05:31:09;3.83;;;1.50;;
13051;SDS011;6592;47.484;9.726;2022-12-08T05:33:40;4.10;;;1.57;;
13051;SDS011;6592;47.484;9.726;2022-12-08T05:36:09;4.87;;;1.73;;
13051;SDS011;6592;47.484;9.726;2022-12-08T05:38:39;4.40;;;1.47;;
13051;SDS011;6592;47.484;9.726;2022-12-08T05:41:08;3.50;;;1.10;;
13051;SDS011;6592;47.484;9.726;2022-12-08T05:43:39;4.78;;;1.40;;
13051;SDS011;6592;47.484;9.726;2022-12-08T05:46:07;4.83;;;1.50;;
13051;SDS011;6592;47.484;9.726;2022-12-08T05:48:36;3.20;;;1.30;;
13051;SDS011;6592;47.484;9.726;2022-12-08T05:51:06;7.97;;;1.87;;
13051;SDS011;6592;47.484;9.726;2022-12-08T05:53:41;3.30;;;1.30;;
13051;SDS011;6592;47.484;9.726;2022-12-08T05:56:09;5.43;;;1.60;;
13051;SDS011;6592;47.484;9.726;2022-12-08T05:58:38;4.33;;;1.50;;
13051;SDS011;6592;47.484;9.726;2022-12-08T06:01:06;2.60;;;1.17;;
13051;SDS011;6592;47.484;9.726;2022-12-08T06:03:34;3.90;;;1.50;;
13051;SDS011;6592;47.484;9.726;2022-12-08T06:06:03;5.37;;;1.43;;
13051;SDS011;6592;47.484;9.726;2022-12-08T06:08:33;6.00;;;1.63;;
13051;SDS011;6592;47.484;9.726;2022-12-08T06:11:01;4.70;;;1.50;;
13051;SDS011;6592;47.484;9.726;2022-12-08T06:13:29;3.90;;;1.93;;
13051;SDS011;6592;47.484;9.726;2022-12-08T06:16:01;3.73;;;1.53;;
13051;SDS011;6592;47.484;9.726;2022-12-08T06:18:31;4.30;;;1.60;;
13051;SDS011;6592;47.484;9.726;2022-12-08T06:21:03;4.00;;;1.30;;
13051;SDS011;6592;47.484;9.726;2022-12-08T06:23:33;6.47;;;1.80;;
13051;SDS011;6592;47.484;9.726;2022-12-08T06:26:01;3.43;;;1.33;;
13051;SDS011;6592;47.484;9.726;2022-12-08T06:28:31;4.03;;;1.67;;
13051;SDS011;6592;47.484;9.726;2022-12-08T06:30:59;4.43;;;1.53;;
13051;SDS011;6592;47.484;9.726;2022-12-08T06:33:34;4.07;;;1.30;;
13051;SDS011;6592;47.484;9.726;2022-12-08T06:36:03;4.57;;;1.43;;
13051;SDS011;6592;47.484;9.726;2022-12-08T06:38:33;5.60;;;1.17;;
13051;SDS011;6592;47.484;9.726;2022-12-08T06:41:08;3.37;;;1.13;;
13051;SDS011;6592;47.484;9.726;2022-12-08T06:43:37;5.97;;;2.57;;
13051;SDS011;6592;47.484;9.726;2022-12-08T06:46:06;8.43;;;3.00;;
13051;SDS011;6592;47.484;9.726;2022-12-08T06:48:35;8.27;;;3.13;;
13051;SDS011;6592;47.484;9.726;2022-12-08T06:51:05;5.13;;;1.80;;
13051;SDS011;6592;47.484;9.726;2022-12-08T06:53:35;5.17;;;1.60;;
13051;SDS011;6592;47.484;9.726;2022-12-08T06:56:04;5.77;;;1.80;;
13051;SDS011;6592;47.484;9.726;2022-12-08T06:58:33;3.60;;;1.23;;
13051;SDS011;6592;47.484;9.726;2022-12-08T07:01:05;4.93;;;1.27;;
13051;SDS011;6592;47.484;9.726;2022-12-08T07:03:34;3.37;;;0.83;;
13051;SDS011;6592;47.484;9.726;2022-12-08T07:06:03;2.87;;;1.13;;
13051;SDS011;6592;47.484;9.726;2022-12-08T07:08:32;3.77;;;1.20;;
13051;SDS011;6592;47.484;9.726;2022-12-08T07:11:06;4.40;;;1.40;;
13051;SDS011;6592;47.484;9.726;2022-12-08T07:13:35;2.90;;;1.27;;
13051;SDS011;6592;47.484;9.726;2022-12-08T07:16:04;2.70;;;1.10;;
13051;SDS011;6592;47.484;9.726;2022-12-08T07:18:33;4.30;;;1.70;;
13051;SDS011;6592;47.484;9.726;2022-12-08T07:21:02;4.37;;;1.30;;
13051;SDS011;6592;47.484;9.726;2022-12-08T07:23:31;3.77;;;1.30;;
13051;SDS011;6592;47.484;9.726;2022-12-08T07:26:00;3.80;;;1.40;;
13051;SDS011;6592;47.484;9.726;2022-12-08T07:28:30;2.37;;;1.00;;
13051;SDS011;6592;47.484;9.726;2022-12-08T07:30:59;3.00;;;1.03;;
13051;SDS011;6592;47.484;9.726;2022-12-08T07:33:28;4.10;;;1.40;;
13051;SDS011;6592;47.484;9.726;2022-12-08T07:35:56;3.03;;;1.30;;
13051;SDS011;6592;47.484;9.726;2022-12-08T07:38:26;2.83;;;1.37;;
13051;SDS011;6592;47.484;9.726;2022-12-08T07:40:54;6.37;;;1.63;;
13051;SDS011;6592;47.484;9.726;2022-12-08T07:43:22;4.20;;;1.50;;
13051;SDS011;6592;47.484;9.726;2022-12-08T07:45:52;4.67;;;1.80;;
13051;SDS011;6592;47.484;9.726;2022-12-08T07:48:21;3.90;;;1.50;;
13051;SDS011;6592;47.484;9.726;2022-12-08T07:50:49;5.87;;;1.83;;
13051;SDS011;6592;47.484;9.726;2022-12-08T07:53:17;5.40;;;1.60;;
13051;SDS011;6592;47.484;9.726;2022-12-08T07:55:46;6.43;;;2.27;;
13051;SDS011;6592;47.484;9.726;2022-12-08T07:58:14;9.93;;;2.57;;
13051;SDS011;6592;47.484;9.726;2022-12-08T08:00:42;6.77;;;2.33;;
13051;SDS011;6592;47.484;9.726;2022-12-08T08:03:12;6.47;;;2.30;;
13051;SDS011;6592;47.484;9.726;2022-12-08T08:05:41;4.97;;;2.10;;
13051;SDS011;6592;47.484;9.726;2022-12-08T08:08:10;4.43;;;1.70;;
13051;SDS011;6592;47.484;9.726;2022-12-08T08:10:38;7.93;;;2.43;;
13051;SDS011;6592;47.484;9.726;2022-12-08T08:13:07;5.37;;;1.83;;
13051;SDS011;6592;47.484;9.726;2022-12-08T08:15:35;6.57;;;2.50;;
13051;SDS011;6592;47.484;9.726;2022-12-08T08:18:04;5.30;;;1.83;;
13051;SDS011;6592;47.484;9.726;2022-12-08T08:20:34;5.10;;;2.00;;
13051;SDS011;6592;47.484;9.726;2022-12-08T08:23:03;6.80;;;2.50;;
13051;SDS011;6592;47.484;9.726;2022-12-08T08:25:31;7.00;;;2.27;;
13051;SDS011;6592;47.484;9.726;2022-12-08T08:27:59;8.13;;;2.63;;
13051;SDS011;6592;47.484;9.726;2022-12-08T08:30:27;5.07;;;1.80;;
13051;SDS011;6592;47.484;9.726;2022-12-08T08:32:56;7.27;;;2.27;;
13051;SDS011;6592;47.484;9.726;2022-12-08T08:35:24;6.63;;;2.60;;
13051;SDS011;6592;47.484;9.726;2022-12-08T08:37:54;7.40;;;2.67;;
13051;SDS011;6592;47.484;9.726;2022-12-08T08:40:22;5.10;;;2.13;;
13051;SDS011;6592;47.484;9.726;2022-12-08T08:42:51;6.10;;;2.23;;
13051;SDS011;6592;47.484;9.726;2022-12-08T08:45:19;6.17;;;2.53;;
13051;SDS011;6592;47.484;9.726;2022-12-08T08:47:47;4.90;;;1.90;;
13051;SDS011;6592;47.484;9.726;2022-12-08T08:50:15;5.63;;;2.03;;
13051;SDS011;6592;47.484;9.726;2022-12-08T08:52:44;5.00;;;1.93;;
13051;SDS011;6592;47.484;9.726;2022-12-08T08:55:13;5.20;;;2.20;;
13051;SDS011;6592;47.484;9.726;2022-12-08T08:57:42;3.83;;;1.33;;
13051;SDS011;6592;47.484;9.726;2022-12-08T09:00:10;3.40;;;1.30;;
13051;SDS011;6592;47.484;9.726;2022-12-08T09:02:39;4.73;;;1.80;;
13051;SDS011;6592;47.484;9.726;2022-12-08T09:05:08;5.80;;;1.57;;
13051;SDS011;6592;47.484;9.726;2022-12-08T09:07:36;5.43;;;1.67;;
13051;SDS011;6592;47.484;9.726;2022-12-08T09:10:05;6.33;;;2.30;;
13051;SDS011;6592;47.484;9.726;2022-12-08T09:12:36;3.57;;;1.57;;
13051;SDS011;6592;47.484;9.726;2022-12-08T09:15:04;4.10;;;1.93;;
13051;SDS011;6592;47.484;9.726;2022-12-08T09:17:33;4.63;;;1.97;;
13051;SDS011;6592;47.484;9.726;2022-12-08T09:20:02;5.03;;;1.60;;
13051;SDS011;6592;47.484;9.726;2022-12-08T09:22:31;4.33;;;1.93;;
13051;SDS011;6592;47.484;9.726;2022-12-08T09:24:59;4.73;;;1.33;;
13051;SDS011;6592;47.484;9.726;2022-12-08T09:27:27;5.00;;;1.70;;
13051;SDS011;6592;47.484;9.726;2022-12-08T09:29:58;3.97;;;1.65;;
13051;SDS011;6592;47.484;9.726;2022-12-08T09:32:27;7.68;;;2.00;;
13051;SDS011;6592;47.484;9.726;2022-12-08T09:34:55;6.32;;;2.33;;
13051;SDS011;6592;47.484;9.726;2022-12-08T09:37:24;6.13;;;1.90;;
13051;SDS011;6592;47.484;9.726;2022-12-08T09:39:52;6.68;;;2.20;;
13051;SDS011;6592;47.484;9.726;2022-12-08T09:42:23;5.00;;;2.10;;
13051;SDS011;6592;47.484;9.726;2022-12-08T09:45:06;5.90;;;1.75;;
13051;SDS011;6592;47.484;9.726;2022-12-08T09:47:38;5.85;;;2.42;;
13051;SDS011;6592;47.484;9.726;2022-12-08T09:50:11;5.82;;;1.77;;
13051;SDS011;6592;47.484;9.726;2022-12-08T09:52:44;8.43;;;2.30;;
13051;SDS011;6592;47.484;9.726;2022-12-08T09:55:21;5.88;;;2.25;;
13051;SDS011;6592;47.484;9.726;2022-12-08T09:57:55;4.78;;;2.28;;
13051;SDS011;6592;47.484;9.726;2022-12-08T10:00:29;4.13;;;1.77;;
13051;SDS011;6592;47.484;9.726;2022-12-08T10:02:57;8.25;;;2.10;;
13051;SDS011;6592;47.484;9.726;2022-12-08T10:05:26;5.20;;;2.20;;
13051;SDS011;6592;47.484;9.726;2022-12-08T10:07:59;4.20;;;2.20;;
13051;SDS011;6592;47.484;9.726;2022-12-08T10:10:37;6.15;;;2.00;;
13051;SDS011;6592;47.484;9.726;2022-12-08T10:13:10;3.60;;;1.67;;
13051;SDS011;6592;47.484;9.726;2022-12-08T10:15:49;5.65;;;2.33;;
13051;SDS011;6592;47.484;9.726;2022-12-08T10:18:26;6.78;;;2.60;;
13051;SDS011;6592;47.484;9.726;2022-12-08T10:20:56;4.78;;;2.30;;
13051;SDS011;6592;47.484;9.726;2022-12-08T10:23:38;5.70;;;2.53;;
13051;SDS011;6592;47.484;9.726;2022-12-08T10:26:11;5.93;;;2.60;;
13051;SDS011;6592;47.484;9.726;2022-12-08T10:28:41;5.03;;;2.30;;
13051;SDS011;6592;47.484;9.726;2022-12-08T10:31:16;4.38;;;1.95;;
13051;SDS011;6592;47.484;9.726;2022-12-08T10:33:46;6.20;;;2.67;;
13051;SDS011;6592;47.484;9.726;2022-12-08T10:36:26;5.43;;;2.60;;
13051;SDS011;6592;47.484;9.726;2022-12-08T10:42:16;7.10;;;2.70;;
13051;SDS011;6592;47.484;9.726;2022-12-08T10:44:50;7.13;;;3.15;;
13051;SDS011;6592;47.484;9.726;2022-12-08T10:47:24;6.15;;;3.03;;
13051;SDS011;6592;47.484;9.726;2022-12-08T10:52:45;5.30;;;2.90;;
13051;SDS011;6592;47.484;9.726;2022-12-08T10:55:20;5.95;;;3.03;;
13051;SDS011;6592;47.484;9.726;2022-12-08T10:57:49;7.80;;;3.33;;
13051;SDS011;6592;47.484;9.726;2022-12-08T11:00:18;5.60;;;2.70;;
13051;SDS011;6592;47.484;9.726;2022-12-08T11:02:56;4.53;;;2.80;;
13051;SDS011;6592;47.484;9.726;2022-12-08T11:05:27;6.57;;;3.30;;
13051;SDS011;6592;47.484;9.726;2022-12-08T11:07:58;8.45;;;3.35;;
13051;SDS011;6592;47.484;9.726;2022-12-08T11:10:32;6.18;;;3.22;;
13051;SDS011;6592;47.484;9.726;2022-12-08T11:13:02;6.10;;;3.47;;
13051;SDS011;6592;47.484;9.726;2022-12-08T11:15:33;6.53;;;3.50;;
13051;SDS011;6592;47.484;9.726;2022-12-08T11:18:08;7.38;;;3.58;;
13051;SDS011;6592;47.484;9.726;2022-12-08T11:20:54;6.90;;;3.42;;
13051;SDS011;6592;47.484;9.726;2022-12-08T11:23:25;6.32;;;3.20;;
13051;SDS011;6592;47.484;9.726;2022-12-08T11:25:55;7.22;;;3.80;;
13051;SDS011;6592;47.484;9.726;2022-12-08T11:28:29;6.30;;;3.30;;
13051;SDS011;6592;47.484;9.726;2022-12-08T11:30:59;7.18;;;3.38;;
13051;SDS011;6592;47.484;9.726;2022-12-08T11:33:34;7.32;;;3.63;;
13051;SDS011;6592;47.484;9.726;2022-12-08T11:36:03;5.50;;;3.53;;
13051;SDS011;6592;47.484;9.726;2022-12-08T11:38:34;6.22;;;3.45;;
13051;SDS011;6592;47.484;9.726;2022-12-08T11:41:09;9.23;;;3.78;;
13051;SDS011;6592;47.484;9.726;2022-12-08T11:43:44;6.43;;;3.42;;
13051;SDS011;6592;47.484;9.726;2022-12-08T11:46:16;5.85;;;3.30;;
13051;SDS011;6592;47.484;9.726;2022-12-08T11:48:50;5.95;;;3.40;;
13051;SDS011;6592;47.484;9.726;2022-12-08T11:51:31;6.40;;;3.50;;
13051;SDS011;6592;47.484;9.726;2022-12-08T11:54:09;6.95;;;3.53;;
13051;SDS011;6592;47.484;9.726;2022-12-08T11:56:46;6.45;;;3.70;;
13051;SDS011;6592;47.484;9.726;2022-12-08T11:59:19;6.70;;;3.55;;
13051;SDS011;6592;47.484;9.726;2022-12-08T12:01:52;6.68;;;4.03;;
13051;SDS011;6592;47.484;9.726;2022-12-08T12:04:23;8.07;;;4.68;;
13051;SDS011;6592;47.484;9.726;2022-12-08T12:09:58;8.93;;;5.30;;
13051;SDS011;6592;47.484;9.726;2022-12-08T12:12:50;10.68;;;5.90;;
13051;SDS011;6592;47.484;9.726;2022-12-08T12:15:33;10.52;;;6.07;;
13051;SDS011;6592;47.484;9.726;2022-12-08T12:18:27;7.88;;;4.85;;
13051;SDS011;6592;47.484;9.726;2022-12-08T12:21:00;9.00;;;5.50;;
13051;SDS011;6592;47.484;9.726;2022-12-08T12:23:38;9.63;;;5.60;;
13051;SDS011;6592;47.484;9.726;2022-12-08T12:26:15;8.60;;;5.03;;
13051;SDS011;6592;47.484;9.726;2022-12-08T12:28:47;9.40;;;5.18;;
13051;SDS011;6592;47.484;9.726;2022-12-08T12:31:21;9.45;;;5.28;;
13051;SDS011;6592;47.484;9.726;2022-12-08T12:33:53;9.27;;;5.53;;
13051;SDS011;6592;47.484;9.726;2022-12-08T12:36:31;9.63;;;5.68;;
13051;SDS011;6592;47.484;9.726;2022-12-08T12:39:13;8.75;;;5.57;;
13051;SDS011;6592;47.484;9.726;2022-12-08T12:41:44;9.50;;;6.15;;
13051;SDS011;6592;47.484;9.726;2022-12-08T12:44:22;9.30;;;5.57;;
13051;SDS011;6592;47.484;9.726;2022-12-08T12:47:09;9.55;;;5.60;;
13051;SDS011;6592;47.484;9.726;2022-12-08T12:50:06;9.38;;;5.38;;
13051;SDS011;6592;47.484;9.726;2022-12-08T12:52:37;9.55;;;5.63;;
13051;SDS011;6592;47.484;9.726;2022-12-08T12:58:22;10.38;;;5.55;;
13051;SDS011;6592;47.484;9.726;2022-12-08T13:04:17;9.32;;;5.88;;
13051;SDS011;6592;47.484;9.726;2022-12-08T13:06:46;9.00;;;5.38;;
13051;SDS011;6592;47.484;9.726;2022-12-08T13:09:22;10.27;;;6.00;;
13051;SDS011;6592;47.484;9.726;2022-12-08T13:11:56;9.60;;;6.03;;
13051;SDS011;6592;47.484;9.726;2022-12-08T13:14:30;8.85;;;5.90;;
13051;SDS011;6592;47.484;9.726;2022-12-08T13:17:03;9.25;;;6.10;;
13051;SDS011;6592;47.484;9.726;2022-12-08T13:19:37;9.27;;;6.28;;
13051;SDS011;6592;47.484;9.726;2022-12-08T13:31:38;10.67;;;6.03;;
13051;SDS011;6592;47.484;9.726;2022-12-08T13:34:16;9.93;;;6.22;;
13051;SDS011;6592;47.484;9.726;2022-12-08T13:37:00;8.38;;;5.72;;
13051;SDS011;6592;47.484;9.726;2022-12-08T13:39:35;8.95;;;5.82;;
13051;SDS011;6592;47.484;9.726;2022-12-08T13:42:14;10.27;;;6.25;;
13051;SDS011;6592;47.484;9.726;2022-12-08T13:44:49;9.93;;;6.05;;
13051;SDS011;6592;47.484;9.726;2022-12-08T13:47:43;9.27;;;5.80;;
13051;SDS011;6592;47.484;9.726;2022-12-08T13:50:35;10.18;;;6.65;;
13051;SDS011;6592;47.484;9.726;2022-12-08T13:53:27;9.65;;;6.20;;
13051;SDS011;6592;47.484;9.726;2022-12-08T13:56:22;10.95;;;6.45;;
13051;SDS011;6592;47.484;9.726;2022-12-08T13:59:24;9.80;;;6.22;;
13051;SDS011;6592;47.484;9.726;2022-12-08T14:01:56;9.13;;;5.95;;
13051;SDS011;6592;47.484;9.726;2022-12-08T14:04:27;9.20;;;6.00;;
13051;SDS011;6592;47.484;9.726;2022-12-08T14:07:15;10.30;;;6.25;;
13051;SDS011;6592;47.484;9.726;2022-12-08T14:09:44;9.95;;;6.38;;
13051;SDS011;6592;47.484;9.726;2022-12-08T14:12:16;11.30;;;6.53;;
13051;SDS011;6592;47.484;9.726;2022-12-08T14:14:47;10.70;;;6.05;;
13051;SDS011;6592;47.484;9.726;2022-12-08T14:17:33;10.32;;;6.07;;
13051;SDS011;6592;47.484;9.726;2022-12-08T14:20:03;11.07;;;6.28;;
13051;SDS011;6592;47.484;9.726;2022-12-08T14:22:47;11.55;;;6.30;;
13051;SDS011;6592;47.484;9.726;2022-12-08T14:25:16;12.35;;;6.38;;
13051;SDS011;6592;47.484;9.726;2022-12-08T14:27:44;13.80;;;6.50;;
13051;SDS011;6592;47.484;9.726;2022-12-08T14:30:19;12.50;;;5.93;;
13051;SDS011;6592;47.484;9.726;2022-12-08T14:32:51;13.82;;;6.00;;
13051;SDS011;6592;47.484;9.726;2022-12-08T14:35:22;10.52;;;5.70;;
13051;SDS011;6592;47.484;9.726;2022-12-08T14:37:53;13.35;;;5.43;;
13051;SDS011;6592;47.484;9.726;2022-12-08T14:43:04;11.90;;;5.68;;
13051;SDS011;6592;47.484;9.726;2022-12-08T14:45:47;13.45;;;5.82;;
13051;SDS011;6592;47.484;9.726;2022-12-08T14:48:22;12.63;;;5.88;;
13051;SDS011;6592;47.484;9.726;2022-12-08T14:50:56;11.98;;;5.60;;
13051;SDS011;6592;47.484;9.726;2022-12-08T14:53:28;11.88;;;5.72;;
13051;SDS011;6592;47.484;9.726;2022-12-08T14:56:05;13.15;;;5.75;;
13051;SDS011;6592;47.484;9.726;2022-12-08T14:58:35;12.95;;;5.88;;
13051;SDS011;6592;47.484;9.726;2022-12-08T15:01:05;14.93;;;6.57;;
13051;SDS011;6592;47.484;9.726;2022-12-08T15:03:35;13.88;;;6.55;;
13051;SDS011;6592;47.484;9.726;2022-12-08T15:06:04;13.52;;;6.15;;
13051;SDS011;6592;47.484;9.726;2022-12-08T15:08:49;14.20;;;6.28;;
13051;SDS011;6592;47.484;9.726;2022-12-08T15:16:55;12.30;;;5.38;;
13051;SDS011;6592;47.484;9.726;2022-12-08T15:19:25;13.50;;;6.25;;
13051;SDS011;6592;47.484;9.726;2022-12-08T15:21:56;14.95;;;5.95;;
13051;SDS011;6592;47.484;9.726;2022-12-08T15:24:27;16.90;;;6.18;;
13051;SDS011;6592;47.484;9.726;2022-12-08T15:26:57;16.63;;;7.00;;
13051;SDS011;6592;47.484;9.726;2022-12-08T15:29:26;11.77;;;5.80;;
13051;SDS011;6592;47.484;9.726;2022-12-08T15:31:57;13.68;;;6.43;;
13051;SDS011;6592;47.484;9.726;2022-12-08T15:34:27;16.45;;;6.60;;
13051;SDS011;6592;47.484;9.726;2022-12-08T15:36:56;17.27;;;6.63;;
13051;SDS011;6592;47.484;9.726;2022-12-08T15:39:36;15.65;;;6.55;;
13051;SDS011;6592;47.484;9.726;2022-12-08T15:42:05;13.20;;;5.75;;
13051;SDS011;6592;47.484;9.726;2022-12-08T15:44:38;14.52;;;6.30;;
13051;SDS011;6592;47.484;9.726;2022-12-08T15:47:09;14.05;;;6.20;;
13051;SDS011;6592;47.484;9.726;2022-12-08T15:49:42;18.85;;;7.32;;
13051;SDS011;6592;47.484;9.726;2022-12-08T15:52:11;16.67;;;7.38;;
13051;SDS011;6592;47.484;9.726;2022-12-08T15:54:41;17.95;;;7.32;;
13051;SDS011;6592;47.484;9.726;2022-12-08T15:57:16;17.80;;;7.15;;
13051;SDS011;6592;47.484;9.726;2022-12-08T16:00:09;17.33;;;7.00;;
13051;SDS011;6592;47.484;9.726;2022-12-08T16:03:21;14.70;;;6.05;;
13051;SDS011;6592;47.484;9.726;2022-12-08T16:06:15;51.50;;;14.90;;
13051;SDS011;6592;47.484;9.726;2022-12-08T16:11:38;145.57;;;34.72;;